sensor_id;sensor_type;location;lat;lon;timestamp;temperature;humidity
46309;DHT22;32037;50.820;6.494;2024-03-17T00:01:12;11.90;99.90
46309;DHT22;32037;50.820;6.494;2024-03-17T00:03:39;11.90;99.90
46309;DHT22;32037;50.820;6.494;2024-03-17T00:06:07;11.90;99.90
46309;DHT22;32037;50.820;6.494;2024-03-17T00:08:35;11.90;99.90
46309;DHT22;32037;50.820;6.494;2024-03-17T00:11:02;11.90;99.90
46309;DHT22;32037;50.820;6.494;2024-03-17T00:13:28;11.90;99.90
46309;DHT22;32037;50.820;6.494;2024-03-17T00:15:55;11.90;99.90
46309;DHT22;32037;50.820;6.494;2024-03-17T00:18:21;11.90;99.90
46309;DHT22;32037;50.820;6.494;2024-03-17T00:20:48;11.90;99.90
46309;DHT22;32037;50.820;6.494;2024-03-17T00:23:16;11.90;99.90
46309;DHT22;32037;50.820;6.494;2024-03-17T00:25:43;11.90;99.90
46309;DHT22;32037;50.820;6.494;2024-03-17T00:28:09;11.80;99.90
46309;DHT22;32037;50.820;6.494;2024-03-17T00:30:37;11.80;99.90
46309;DHT22;32037;50.820;6.494;2024-03-17T00:33:04;11.80;99.90
46309;DHT22;32037;50.820;6.494;2024-03-17T00:35:31;11.80;99.90
46309;DHT22;32037;50.820;6.494;2024-03-17T00:37:57;11.80;99.90
46309;DHT22;32037;50.820;6.494;2024-03-17T00:40:25;11.80;99.90
46309;DHT22;32037;50.820;6.494;2024-03-17T00:42:52;11.80;99.90
46309;DHT22;32037;50.820;6.494;2024-03-17T00:45:20;11.80;99.90
46309;DHT22;32037;50.820;6.494;2024-03-17T00:47:46;11.80;99.90
46309;DHT22;32037;50.820;6.494;2024-03-17T00:50:13;11.80;99.90
46309;DHT22;32037;50.820;6.494;2024-03-17T00:52:39;11.80;99.90
46309;DHT22;32037;50.820;6.494;2024-03-17T00:55:07;11.80;99.90
46309;DHT22;32037;50.820;6.494;2024-03-17T00:57:36;11.80;99.90
46309;DHT22;32037;50.820;6.494;2024-03-17T01:00:04;11.80;99.90
46309;DHT22;32037;50.820;6.494;2024-03-17T01:02:32;11.80;99.90
46309;DHT22;32037;50.820;6.494;2024-03-17T01:04:59;11.80;99.90
46309;DHT22;32037;50.820;6.494;2024-03-17T01:07:25;11.80;99.90
46309;DHT22;32037;50.820;6.494;2024-03-17T01:09:52;11.80;99.90
46309;DHT22;32037;50.820;6.494;2024-03-17T01:12:20;11.80;99.90
46309;DHT22;32037;50.820;6.494;2024-03-17T01:14:48;11.80;99.90
46309;DHT22;32037;50.820;6.494;2024-03-17T01:17:14;11.80;99.90
46309;DHT22;32037;50.820;6.494;2024-03-17T01:19:41;11.80;99.90
46309;DHT22;32037;50.820;6.494;2024-03-17T01:22:07;11.80;99.90
46309;DHT22;32037;50.820;6.494;2024-03-17T01:24:35;11.80;99.90
46309;DHT22;32037;50.820;6.494;2024-03-17T01:27:01;11.80;99.90
46309;DHT22;32037;50.820;6.494;2024-03-17T01:29:28;11.70;99.90
46309;DHT22;32037;50.820;6.494;2024-03-17T01:31:55;11.70;99.90
46309;DHT22;32037;50.820;6.494;2024-03-17T01:34:22;11.70;99.90
46309;DHT22;32037;50.820;6.494;2024-03-17T01:36:49;11.70;99.90
46309;DHT22;32037;50.820;6.494;2024-03-17T01:39:16;11.70;99.90
46309;DHT22;32037;50.820;6.494;2024-03-17T01:41:44;11.70;99.90
46309;DHT22;32037;50.820;6.494;2024-03-17T01:44:22;11.70;99.90
46309;DHT22;32037;50.820;6.494;2024-03-17T01:46:49;11.70;99.90
46309;DHT22;32037;50.820;6.494;2024-03-17T01:49:18;11.70;99.90
46309;DHT22;32037;50.820;6.494;2024-03-17T01:51:46;11.70;99.90
46309;DHT22;32037;50.820;6.494;2024-03-17T01:54:14;11.70;99.90
46309;DHT22;32037;50.820;6.494;2024-03-17T01:56:41;11.70;99.90
46309;DHT22;32037;50.820;6.494;2024-03-17T01:59:09;11.70;99.90
46309;DHT22;32037;50.820;6.494;2024-03-17T02:01:35;11.70;99.90
46309;DHT22;32037;50.820;6.494;2024-03-17T02:04:04;11.70;99.90
46309;DHT22;32037;50.820;6.494;2024-03-17T02:06:32;11.70;99.90
46309;DHT22;32037;50.820;6.494;2024-03-17T02:08:59;11.70;99.90
46309;DHT22;32037;50.820;6.494;2024-03-17T02:11:27;11.70;99.90
46309;DHT22;32037;50.820;6.494;2024-03-17T02:13:55;11.70;99.90
46309;DHT22;32037;50.820;6.494;2024-03-17T02:16:21;11.70;99.90
46309;DHT22;32037;50.820;6.494;2024-03-17T02:18:49;11.70;99.90
46309;DHT22;32037;50.820;6.494;2024-03-17T02:21:15;11.70;99.90
46309;DHT22;32037;50.820;6.494;2024-03-17T02:23:44;11.70;99.90
46309;DHT22;32037;50.820;6.494;2024-03-17T02:26:10;11.70;99.90
46309;DHT22;32037;50.820;6.494;2024-03-17T02:28:42;11.70;99.90
46309;DHT22;32037;50.820;6.494;2024-03-17T02:31:11;11.70;99.90
46309;DHT22;32037;50.820;6.494;2024-03-17T02:33:38;11.70;99.90
46309;DHT22;32037;50.820;6.494;2024-03-17T02:36:05;11.70;99.90
46309;DHT22;32037;50.820;6.494;2024-03-17T02:38:33;11.70;99.90
46309;DHT22;32037;50.820;6.494;2024-03-17T02:41:20;11.60;99.90
46309;DHT22;32037;50.820;6.494;2024-03-17T02:43:47;11.70;99.90
46309;DHT22;32037;50.820;6.494;2024-03-17T02:46:16;11.60;99.90
46309;DHT22;32037;50.820;6.494;2024-03-17T02:48:45;11.60;99.90
46309;DHT22;32037;50.820;6.494;2024-03-17T02:51:13;11.60;99.90
46309;DHT22;32037;50.820;6.494;2024-03-17T02:53:41;11.60;99.90
46309;DHT22;32037;50.820;6.494;2024-03-17T02:56:08;11.60;99.90
46309;DHT22;32037;50.820;6.494;2024-03-17T02:58:38;11.60;99.90
46309;DHT22;32037;50.820;6.494;2024-03-17T03:01:08;11.60;99.90
46309;DHT22;32037;50.820;6.494;2024-03-17T03:03:36;11.60;99.90
46309;DHT22;32037;50.820;6.494;2024-03-17T03:06:03;11.60;99.90
46309;DHT22;32037;50.820;6.494;2024-03-17T03:08:34;11.60;99.90
46309;DHT22;32037;50.820;6.494;2024-03-17T03:11:04;11.60;99.90
46309;DHT22;32037;50.820;6.494;2024-03-17T03:13:32;11.60;99.90
46309;DHT22;32037;50.820;6.494;2024-03-17T03:16:00;11.60;99.90
46309;DHT22;32037;50.820;6.494;2024-03-17T03:18:27;11.60;99.90
46309;DHT22;32037;50.820;6.494;2024-03-17T03:20:54;11.60;99.90
46309;DHT22;32037;50.820;6.494;2024-03-17T03:23:21;11.60;99.90
46309;DHT22;32037;50.820;6.494;2024-03-17T03:25:54;11.60;99.90
46309;DHT22;32037;50.820;6.494;2024-03-17T03:28:22;11.50;99.90
46309;DHT22;32037;50.820;6.494;2024-03-17T03:30:49;11.60;99.90
46309;DHT22;32037;50.820;6.494;2024-03-17T03:33:18;11.50;99.90
46309;DHT22;32037;50.820;6.494;2024-03-17T03:35:45;11.50;99.90
46309;DHT22;32037;50.820;6.494;2024-03-17T03:38:13;11.50;99.90
46309;DHT22;32037;50.820;6.494;2024-03-17T03:40:40;11.50;99.90
46309;DHT22;32037;50.820;6.494;2024-03-17T03:43:07;11.50;99.90
46309;DHT22;32037;50.820;6.494;2024-03-17T03:45:35;11.50;99.90
46309;DHT22;32037;50.820;6.494;2024-03-17T03:48:03;11.50;99.90
46309;DHT22;32037;50.820;6.494;2024-03-17T03:50:32;11.50;99.90
46309;DHT22;32037;50.820;6.494;2024-03-17T03:52:59;11.50;99.90
46309;DHT22;32037;50.820;6.494;2024-03-17T03:55:26;11.50;99.90
46309;DHT22;32037;50.820;6.494;2024-03-17T03:57:55;11.50;99.90
46309;DHT22;32037;50.820;6.494;2024-03-17T04:00:22;11.50;99.90
46309;DHT22;32037;50.820;6.494;2024-03-17T04:02:51;11.50;99.90
46309;DHT22;32037;50.820;6.494;2024-03-17T04:05:19;11.50;99.90
46309;DHT22;32037;50.820;6.494;2024-03-17T04:07:47;11.50;99.90
46309;DHT22;32037;50.820;6.494;2024-03-17T04:10:15;11.50;99.90
46309;DHT22;32037;50.820;6.494;2024-03-17T04:12:44;11.50;99.90
46309;DHT22;32037;50.820;6.494;2024-03-17T04:15:12;11.50;99.90
46309;DHT22;32037;50.820;6.494;2024-03-17T04:17:40;11.50;99.90
46309;DHT22;32037;50.820;6.494;2024-03-17T04:20:09;11.50;99.90
46309;DHT22;32037;50.820;6.494;2024-03-17T04:22:39;11.50;99.90
46309;DHT22;32037;50.820;6.494;2024-03-17T04:25:08;11.50;99.90
46309;DHT22;32037;50.820;6.494;2024-03-17T04:27:35;11.50;99.90
46309;DHT22;32037;50.820;6.494;2024-03-17T04:30:05;11.40;99.90
46309;DHT22;32037;50.820;6.494;2024-03-17T04:32:33;11.40;99.90
46309;DHT22;32037;50.820;6.494;2024-03-17T04:35:00;11.40;99.90
46309;DHT22;32037;50.820;6.494;2024-03-17T04:37:28;11.40;99.90
46309;DHT22;32037;50.820;6.494;2024-03-17T04:39:55;11.40;99.90
46309;DHT22;32037;50.820;6.494;2024-03-17T04:42:24;11.40;99.90
46309;DHT22;32037;50.820;6.494;2024-03-17T04:44:51;11.40;99.90
46309;DHT22;32037;50.820;6.494;2024-03-17T04:47:19;11.40;99.90
46309;DHT22;32037;50.820;6.494;2024-03-17T04:49:46;11.40;99.90
46309;DHT22;32037;50.820;6.494;2024-03-17T04:52:14;11.40;99.90
46309;DHT22;32037;50.820;6.494;2024-03-17T04:54:42;11.40;99.90
46309;DHT22;32037;50.820;6.494;2024-03-17T04:57:09;11.40;99.90
46309;DHT22;32037;50.820;6.494;2024-03-17T04:59:38;11.40;99.90
46309;DHT22;32037;50.820;6.494;2024-03-17T05:02:05;11.40;99.90
46309;DHT22;32037;50.820;6.494;2024-03-17T05:04:34;11.40;99.90
46309;DHT22;32037;50.820;6.494;2024-03-17T05:07:01;11.40;99.90
46309;DHT22;32037;50.820;6.494;2024-03-17T05:09:28;11.40;99.90
46309;DHT22;32037;50.820;6.494;2024-03-17T05:11:55;11.40;99.90
46309;DHT22;32037;50.820;6.494;2024-03-17T05:14:22;11.40;99.90
46309;DHT22;32037;50.820;6.494;2024-03-17T05:16:52;11.30;99.90
46309;DHT22;32037;50.820;6.494;2024-03-17T05:19:19;11.30;99.90
46309;DHT22;32037;50.820;6.494;2024-03-17T05:21:47;11.30;99.90
46309;DHT22;32037;50.820;6.494;2024-03-17T05:24:14;11.30;99.90
46309;DHT22;32037;50.820;6.494;2024-03-17T05:26:41;11.30;99.90
46309;DHT22;32037;50.820;6.494;2024-03-17T05:29:09;11.30;99.90
46309;DHT22;32037;50.820;6.494;2024-03-17T05:31:36;11.30;99.90
46309;DHT22;32037;50.820;6.494;2024-03-17T05:34:06;11.30;99.90
46309;DHT22;32037;50.820;6.494;2024-03-17T05:36:34;11.30;99.90
46309;DHT22;32037;50.820;6.494;2024-03-17T05:39:01;11.30;99.90
46309;DHT22;32037;50.820;6.494;2024-03-17T05:41:28;11.30;99.90
46309;DHT22;32037;50.820;6.494;2024-03-17T05:43:55;11.30;99.90
46309;DHT22;32037;50.820;6.494;2024-03-17T05:46:24;11.30;99.90
46309;DHT22;32037;50.820;6.494;2024-03-17T05:48:52;11.30;99.90
46309;DHT22;32037;50.820;6.494;2024-03-17T05:51:21;11.30;99.90
46309;DHT22;32037;50.820;6.494;2024-03-17T05:53:51;11.30;99.90
46309;DHT22;32037;50.820;6.494;2024-03-17T05:56:18;11.30;99.90
46309;DHT22;32037;50.820;6.494;2024-03-17T05:58:49;11.30;99.90
46309;DHT22;32037;50.820;6.494;2024-03-17T06:01:16;11.30;99.90
46309;DHT22;32037;50.820;6.494;2024-03-17T06:03:43;11.30;99.90
46309;DHT22;32037;50.820;6.494;2024-03-17T06:06:10;11.30;99.90
46309;DHT22;32037;50.820;6.494;2024-03-17T06:08:39;11.20;99.90
46309;DHT22;32037;50.820;6.494;2024-03-17T06:11:06;11.20;99.90
46309;DHT22;32037;50.820;6.494;2024-03-17T06:16:03;11.30;99.90
46309;DHT22;32037;50.820;6.494;2024-03-17T06:18:31;11.20;99.90
46309;DHT22;32037;50.820;6.494;2024-03-17T06:20:58;11.20;99.90
46309;DHT22;32037;50.820;6.494;2024-03-17T06:23:26;11.20;99.90
46309;DHT22;32037;50.820;6.494;2024-03-17T06:25:55;11.20;99.90
46309;DHT22;32037;50.820;6.494;2024-03-17T06:28:23;11.20;99.90
46309;DHT22;32037;50.820;6.494;2024-03-17T06:30:56;11.20;99.90
46309;DHT22;32037;50.820;6.494;2024-03-17T06:33:25;11.20;99.90
46309;DHT22;32037;50.820;6.494;2024-03-17T06:35:54;11.20;99.90
46309;DHT22;32037;50.820;6.494;2024-03-17T06:38:21;11.20;99.90
46309;DHT22;32037;50.820;6.494;2024-03-17T06:40:49;11.20;99.90
46309;DHT22;32037;50.820;6.494;2024-03-17T06:43:18;11.20;99.90
46309;DHT22;32037;50.820;6.494;2024-03-17T06:45:53;11.20;99.90
46309;DHT22;32037;50.820;6.494;2024-03-17T06:48:21;11.20;99.90
46309;DHT22;32037;50.820;6.494;2024-03-17T06:50:48;11.10;99.90
46309;DHT22;32037;50.820;6.494;2024-03-17T06:53:17;11.20;99.90
46309;DHT22;32037;50.820;6.494;2024-03-17T06:55:51;11.10;99.90
46309;DHT22;32037;50.820;6.494;2024-03-17T06:58:20;11.20;99.90
46309;DHT22;32037;50.820;6.494;2024-03-17T07:00:55;11.10;99.90
46309;DHT22;32037;50.820;6.494;2024-03-17T07:03:26;11.10;99.90
46309;DHT22;32037;50.820;6.494;2024-03-17T07:05:54;11.10;99.90
46309;DHT22;32037;50.820;6.494;2024-03-17T07:08:22;11.20;99.90
46309;DHT22;32037;50.820;6.494;2024-03-17T07:10:56;11.20;99.90
46309;DHT22;32037;50.820;6.494;2024-03-17T07:13:25;11.20;99.90
46309;DHT22;32037;50.820;6.494;2024-03-17T07:15:54;11.20;99.90
46309;DHT22;32037;50.820;6.494;2024-03-17T07:18:21;11.20;99.90
46309;DHT22;32037;50.820;6.494;2024-03-17T07:20:49;11.10;99.90
46309;DHT22;32037;50.820;6.494;2024-03-17T07:23:16;11.10;99.90
46309;DHT22;32037;50.820;6.494;2024-03-17T07:25:51;11.10;99.90
46309;DHT22;32037;50.820;6.494;2024-03-17T07:28:19;11.10;99.90
46309;DHT22;32037;50.820;6.494;2024-03-17T07:30:48;11.10;99.90
46309;DHT22;32037;50.820;6.494;2024-03-17T07:33:16;11.10;99.90
46309;DHT22;32037;50.820;6.494;2024-03-17T07:35:47;11.10;99.90
46309;DHT22;32037;50.820;6.494;2024-03-17T07:38:15;11.10;99.90
46309;DHT22;32037;50.820;6.494;2024-03-17T07:40:43;11.10;99.90
46309;DHT22;32037;50.820;6.494;2024-03-17T07:43:10;11.10;99.90
46309;DHT22;32037;50.820;6.494;2024-03-17T07:45:38;11.10;99.90
46309;DHT22;32037;50.820;6.494;2024-03-17T07:48:07;11.10;99.90
46309;DHT22;32037;50.820;6.494;2024-03-17T07:50:34;11.10;99.90
46309;DHT22;32037;50.820;6.494;2024-03-17T07:53:01;11.10;99.90
46309;DHT22;32037;50.820;6.494;2024-03-17T07:55:29;11.10;99.90
46309;DHT22;32037;50.820;6.494;2024-03-17T07:57:57;11.10;99.90
46309;DHT22;32037;50.820;6.494;2024-03-17T08:00:24;11.10;99.90
46309;DHT22;32037;50.820;6.494;2024-03-17T08:02:51;11.10;99.90
46309;DHT22;32037;50.820;6.494;2024-03-17T08:05:21;11.10;99.90
46309;DHT22;32037;50.820;6.494;2024-03-17T08:07:49;11.10;99.90
46309;DHT22;32037;50.820;6.494;2024-03-17T08:10:16;11.10;99.90
46309;DHT22;32037;50.820;6.494;2024-03-17T08:12:44;11.10;99.90
46309;DHT22;32037;50.820;6.494;2024-03-17T08:15:12;11.10;99.90
46309;DHT22;32037;50.820;6.494;2024-03-17T08:17:40;11.10;99.90
46309;DHT22;32037;50.820;6.494;2024-03-17T08:20:07;11.10;99.90
46309;DHT22;32037;50.820;6.494;2024-03-17T08:22:36;11.10;99.90
46309;DHT22;32037;50.820;6.494;2024-03-17T08:25:04;11.10;99.90
46309;DHT22;32037;50.820;6.494;2024-03-17T08:27:31;11.10;99.90
46309;DHT22;32037;50.820;6.494;2024-03-17T08:29:58;11.10;99.90
46309;DHT22;32037;50.820;6.494;2024-03-17T08:32:25;11.10;99.90
46309;DHT22;32037;50.820;6.494;2024-03-17T08:34:53;11.10;99.90
46309;DHT22;32037;50.820;6.494;2024-03-17T08:37:20;11.10;99.90
46309;DHT22;32037;50.820;6.494;2024-03-17T08:39:52;11.10;99.90
46309;DHT22;32037;50.820;6.494;2024-03-17T08:42:20;11.10;99.90
46309;DHT22;32037;50.820;6.494;2024-03-17T08:44:47;11.10;99.90
46309;DHT22;32037;50.820;6.494;2024-03-17T08:47:14;11.10;99.90
46309;DHT22;32037;50.820;6.494;2024-03-17T08:49:42;11.10;99.90
46309;DHT22;32037;50.820;6.494;2024-03-17T08:52:09;11.10;99.90
46309;DHT22;32037;50.820;6.494;2024-03-17T08:54:36;11.20;99.90
46309;DHT22;32037;50.820;6.494;2024-03-17T08:57:05;11.20;99.90
46309;DHT22;32037;50.820;6.494;2024-03-17T08:59:32;11.30;99.90
46309;DHT22;32037;50.820;6.494;2024-03-17T09:01:59;11.20;99.90
46309;DHT22;32037;50.820;6.494;2024-03-17T09:04:26;11.20;99.90
46309;DHT22;32037;50.820;6.494;2024-03-17T09:06:53;11.20;99.90
46309;DHT22;32037;50.820;6.494;2024-03-17T09:09:22;11.20;99.90
46309;DHT22;32037;50.820;6.494;2024-03-17T09:11:49;11.20;99.90
46309;DHT22;32037;50.820;6.494;2024-03-17T09:14:18;11.20;99.90
46309;DHT22;32037;50.820;6.494;2024-03-17T09:16:47;11.20;99.90
46309;DHT22;32037;50.820;6.494;2024-03-17T09:19:14;11.20;99.90
46309;DHT22;32037;50.820;6.494;2024-03-17T09:21:42;11.20;99.90
46309;DHT22;32037;50.820;6.494;2024-03-17T09:24:09;11.20;99.90
46309;DHT22;32037;50.820;6.494;2024-03-17T09:26:37;11.20;99.90
46309;DHT22;32037;50.820;6.494;2024-03-17T09:29:05;11.20;99.90
46309;DHT22;32037;50.820;6.494;2024-03-17T09:31:33;11.20;99.90
46309;DHT22;32037;50.820;6.494;2024-03-17T09:34:01;11.20;99.90
46309;DHT22;32037;50.820;6.494;2024-03-17T09:36:28;11.20;99.90
46309;DHT22;32037;50.820;6.494;2024-03-17T09:38:57;11.20;99.90
46309;DHT22;32037;50.820;6.494;2024-03-17T09:41:26;11.20;99.90
46309;DHT22;32037;50.820;6.494;2024-03-17T09:43:56;11.10;99.90
46309;DHT22;32037;50.820;6.494;2024-03-17T09:46:24;11.10;99.90
46309;DHT22;32037;50.820;6.494;2024-03-17T09:48:54;11.10;99.90
46309;DHT22;32037;50.820;6.494;2024-03-17T09:51:24;11.20;99.90
46309;DHT22;32037;50.820;6.494;2024-03-17T09:53:52;11.10;99.90
46309;DHT22;32037;50.820;6.494;2024-03-17T09:56:20;11.10;99.90
46309;DHT22;32037;50.820;6.494;2024-03-17T09:58:48;11.10;99.90
46309;DHT22;32037;50.820;6.494;2024-03-17T10:01:16;11.10;99.90
46309;DHT22;32037;50.820;6.494;2024-03-17T10:03:44;11.10;99.90
46309;DHT22;32037;50.820;6.494;2024-03-17T10:06:15;11.10;99.90
46309;DHT22;32037;50.820;6.494;2024-03-17T10:08:43;11.10;99.90
46309;DHT22;32037;50.820;6.494;2024-03-17T10:11:11;11.10;99.90
46309;DHT22;32037;50.820;6.494;2024-03-17T10:13:38;11.10;99.90
46309;DHT22;32037;50.820;6.494;2024-03-17T10:16:06;11.10;99.90
46309;DHT22;32037;50.820;6.494;2024-03-17T10:18:33;11.10;99.90
46309;DHT22;32037;50.820;6.494;2024-03-17T10:21:00;11.10;99.90
46309;DHT22;32037;50.820;6.494;2024-03-17T10:23:29;11.10;99.90
46309;DHT22;32037;50.820;6.494;2024-03-17T10:25:56;11.10;99.90
46309;DHT22;32037;50.820;6.494;2024-03-17T10:28:23;11.10;99.90
46309;DHT22;32037;50.820;6.494;2024-03-17T10:30:57;11.10;99.90
46309;DHT22;32037;50.820;6.494;2024-03-17T10:33:25;11.10;99.90
46309;DHT22;32037;50.820;6.494;2024-03-17T10:35:58;11.10;99.90
46309;DHT22;32037;50.820;6.494;2024-03-17T10:38:26;11.10;99.90
46309;DHT22;32037;50.820;6.494;2024-03-17T10:40:55;11.10;99.90
46309;DHT22;32037;50.820;6.494;2024-03-17T10:43:23;11.10;99.90
46309;DHT22;32037;50.820;6.494;2024-03-17T10:45:52;11.10;99.90
46309;DHT22;32037;50.820;6.494;2024-03-17T10:48:21;11.10;99.90
46309;DHT22;32037;50.820;6.494;2024-03-17T10:50:53;11.10;99.90
46309;DHT22;32037;50.820;6.494;2024-03-17T10:53:22;11.10;99.90
46309;DHT22;32037;50.820;6.494;2024-03-17T10:56:03;11.10;99.90
46309;DHT22;32037;50.820;6.494;2024-03-17T10:58:34;11.10;99.90
46309;DHT22;32037;50.820;6.494;2024-03-17T11:01:03;11.10;99.90
46309;DHT22;32037;50.820;6.494;2024-03-17T11:03:31;11.10;99.90
46309;DHT22;32037;50.820;6.494;2024-03-17T11:06:02;11.10;99.90
46309;DHT22;32037;50.820;6.494;2024-03-17T11:08:32;11.10;99.90
46309;DHT22;32037;50.820;6.494;2024-03-17T11:11:01;11.10;99.90
46309;DHT22;32037;50.820;6.494;2024-03-17T11:13:31;11.10;99.90
46309;DHT22;32037;50.820;6.494;2024-03-17T11:15:59;11.10;99.90
46309;DHT22;32037;50.820;6.494;2024-03-17T11:18:37;11.10;99.90
46309;DHT22;32037;50.820;6.494;2024-03-17T11:21:06;11.10;99.90
46309;DHT22;32037;50.820;6.494;2024-03-17T11:23:38;11.10;99.90
46309;DHT22;32037;50.820;6.494;2024-03-17T11:26:07;11.10;99.90
46309;DHT22;32037;50.820;6.494;2024-03-17T11:28:52;11.10;99.90
46309;DHT22;32037;50.820;6.494;2024-03-17T11:31:35;11.10;99.90
46309;DHT22;32037;50.820;6.494;2024-03-17T11:34:04;11.10;99.90
46309;DHT22;32037;50.820;6.494;2024-03-17T11:36:35;11.10;99.90
46309;DHT22;32037;50.820;6.494;2024-03-17T11:39:04;11.10;99.90
46309;DHT22;32037;50.820;6.494;2024-03-17T11:41:40;11.10;99.90
46309;DHT22;32037;50.820;6.494;2024-03-17T11:44:24;11.10;99.90
46309;DHT22;32037;50.820;6.494;2024-03-17T11:46:53;11.10;99.90
46309;DHT22;32037;50.820;6.494;2024-03-17T11:49:22;11.10;99.90
46309;DHT22;32037;50.820;6.494;2024-03-17T11:51:51;11.10;99.90
46309;DHT22;32037;50.820;6.494;2024-03-17T11:54:18;11.10;99.90
46309;DHT22;32037;50.820;6.494;2024-03-17T11:56:49;11.10;99.90
46309;DHT22;32037;50.820;6.494;2024-03-17T11:59:15;11.10;99.90
46309;DHT22;32037;50.820;6.494;2024-03-17T12:01:45;11.10;99.90
46309;DHT22;32037;50.820;6.494;2024-03-17T12:04:13;11.10;99.90
46309;DHT22;32037;50.820;6.494;2024-03-17T12:06:44;11.10;99.90
46309;DHT22;32037;50.820;6.494;2024-03-17T12:09:17;11.10;99.90
46309;DHT22;32037;50.820;6.494;2024-03-17T12:11:48;11.10;99.90
46309;DHT22;32037;50.820;6.494;2024-03-17T12:14:19;11.10;99.90
46309;DHT22;32037;50.820;6.494;2024-03-17T12:16:47;11.10;99.90
46309;DHT22;32037;50.820;6.494;2024-03-17T12:19:14;11.10;99.90
46309;DHT22;32037;50.820;6.494;2024-03-17T12:21:48;11.10;99.90
46309;DHT22;32037;50.820;6.494;2024-03-17T12:24:17;11.10;99.90
46309;DHT22;32037;50.820;6.494;2024-03-17T12:26:45;11.10;99.90
46309;DHT22;32037;50.820;6.494;2024-03-17T12:29:27;11.10;99.90
46309;DHT22;32037;50.820;6.494;2024-03-17T12:31:57;11.10;99.90
46309;DHT22;32037;50.820;6.494;2024-03-17T12:34:25;11.10;99.90
46309;DHT22;32037;50.820;6.494;2024-03-17T12:36:54;11.10;99.90
46309;DHT22;32037;50.820;6.494;2024-03-17T12:39:22;11.10;99.90
46309;DHT22;32037;50.820;6.494;2024-03-17T12:42:07;11.10;99.90
46309;DHT22;32037;50.820;6.494;2024-03-17T12:44:36;11.20;99.90
46309;DHT22;32037;50.820;6.494;2024-03-17T12:47:10;11.20;99.90
46309;DHT22;32037;50.820;6.494;2024-03-17T12:49:45;11.20;99.90
46309;DHT22;32037;50.820;6.494;2024-03-17T12:52:17;11.20;99.90
46309;DHT22;32037;50.820;6.494;2024-03-17T12:54:45;11.20;99.90
46309;DHT22;32037;50.820;6.494;2024-03-17T12:57:20;11.20;99.90
46309;DHT22;32037;50.820;6.494;2024-03-17T13:00:18;11.20;99.90
46309;DHT22;32037;50.820;6.494;2024-03-17T13:02:58;11.20;99.90
46309;DHT22;32037;50.820;6.494;2024-03-17T13:05:25;11.20;99.90
46309;DHT22;32037;50.820;6.494;2024-03-17T13:07:53;11.20;99.90
46309;DHT22;32037;50.820;6.494;2024-03-17T13:10:23;11.20;99.90
46309;DHT22;32037;50.820;6.494;2024-03-17T13:12:59;11.20;99.90
46309;DHT22;32037;50.820;6.494;2024-03-17T13:15:28;11.20;99.90
46309;DHT22;32037;50.820;6.494;2024-03-17T13:17:57;11.20;99.90
46309;DHT22;32037;50.820;6.494;2024-03-17T13:20:24;11.20;99.90
46309;DHT22;32037;50.820;6.494;2024-03-17T13:22:52;11.20;99.90
46309;DHT22;32037;50.820;6.494;2024-03-17T13:25:21;11.20;99.90
46309;DHT22;32037;50.820;6.494;2024-03-17T13:27:50;11.20;99.90
46309;DHT22;32037;50.820;6.494;2024-03-17T13:30:19;11.20;99.90
46309;DHT22;32037;50.820;6.494;2024-03-17T13:32:50;11.20;99.90
46309;DHT22;32037;50.820;6.494;2024-03-17T13:35:23;11.20;99.90
46309;DHT22;32037;50.820;6.494;2024-03-17T13:37:51;11.20;99.90
46309;DHT22;32037;50.820;6.494;2024-03-17T13:40:21;11.20;99.90
46309;DHT22;32037;50.820;6.494;2024-03-17T13:42:50;11.20;99.90
46309;DHT22;32037;50.820;6.494;2024-03-17T13:45:18;11.20;99.90
46309;DHT22;32037;50.820;6.494;2024-03-17T13:47:49;11.20;99.90
46309;DHT22;32037;50.820;6.494;2024-03-17T13:50:16;11.20;99.90
46309;DHT22;32037;50.820;6.494;2024-03-17T13:52:44;11.20;99.90
46309;DHT22;32037;50.820;6.494;2024-03-17T13:55:13;11.20;99.90
46309;DHT22;32037;50.820;6.494;2024-03-17T13:57:42;11.20;99.90
46309;DHT22;32037;50.820;6.494;2024-03-17T14:00:10;11.20;99.90
46309;DHT22;32037;50.820;6.494;2024-03-17T14:02:42;11.20;99.90
46309;DHT22;32037;50.820;6.494;2024-03-17T14:05:13;11.20;99.90
46309;DHT22;32037;50.820;6.494;2024-03-17T14:07:40;11.30;99.90
46309;DHT22;32037;50.820;6.494;2024-03-17T14:10:09;11.30;99.90
46309;DHT22;32037;50.820;6.494;2024-03-17T14:12:37;11.30;99.90
46309;DHT22;32037;50.820;6.494;2024-03-17T14:15:06;11.30;99.90
46309;DHT22;32037;50.820;6.494;2024-03-17T14:17:33;11.30;99.90
46309;DHT22;32037;50.820;6.494;2024-03-17T14:19:59;11.30;99.90
46309;DHT22;32037;50.820;6.494;2024-03-17T14:22:28;11.30;99.90
46309;DHT22;32037;50.820;6.494;2024-03-17T14:24:55;11.30;99.90
46309;DHT22;32037;50.820;6.494;2024-03-17T14:27:22;11.30;99.90
46309;DHT22;32037;50.820;6.494;2024-03-17T14:29:50;11.30;99.90
46309;DHT22;32037;50.820;6.494;2024-03-17T14:32:18;11.30;99.90
46309;DHT22;32037;50.820;6.494;2024-03-17T14:34:46;11.30;99.90
46309;DHT22;32037;50.820;6.494;2024-03-17T14:37:13;11.30;99.90
46309;DHT22;32037;50.820;6.494;2024-03-17T14:39:42;11.30;99.90
46309;DHT22;32037;50.820;6.494;2024-03-17T14:42:10;11.30;99.90
46309;DHT22;32037;50.820;6.494;2024-03-17T14:44:37;11.30;99.90
46309;DHT22;32037;50.820;6.494;2024-03-17T14:47:04;11.30;99.90
46309;DHT22;32037;50.820;6.494;2024-03-17T14:49:32;11.30;99.90
46309;DHT22;32037;50.820;6.494;2024-03-17T14:52:00;11.30;99.90
46309;DHT22;32037;50.820;6.494;2024-03-17T14:54:27;11.30;99.90
46309;DHT22;32037;50.820;6.494;2024-03-17T14:56:56;11.40;99.90
46309;DHT22;32037;50.820;6.494;2024-03-17T14:59:23;11.40;99.90
46309;DHT22;32037;50.820;6.494;2024-03-17T15:01:50;11.40;99.90
46309;DHT22;32037;50.820;6.494;2024-03-17T15:04:17;11.40;99.90
46309;DHT22;32037;50.820;6.494;2024-03-17T15:06:44;11.40;99.90
46309;DHT22;32037;50.820;6.494;2024-03-17T15:09:12;11.40;99.90
46309;DHT22;32037;50.820;6.494;2024-03-17T15:11:39;11.40;99.90
46309;DHT22;32037;50.820;6.494;2024-03-17T15:14:07;11.40;99.90
46309;DHT22;32037;50.820;6.494;2024-03-17T15:16:37;11.40;99.90
46309;DHT22;32037;50.820;6.494;2024-03-17T15:19:04;11.40;99.90
46309;DHT22;32037;50.820;6.494;2024-03-17T15:21:32;11.40;99.90
46309;DHT22;32037;50.820;6.494;2024-03-17T15:24:00;11.40;99.90
46309;DHT22;32037;50.820;6.494;2024-03-17T15:26:28;11.40;99.90
46309;DHT22;32037;50.820;6.494;2024-03-17T15:28:56;11.40;99.90
46309;DHT22;32037;50.820;6.494;2024-03-17T15:31:25;11.40;99.90
46309;DHT22;32037;50.820;6.494;2024-03-17T15:33:52;11.50;99.90
46309;DHT22;32037;50.820;6.494;2024-03-17T15:36:21;11.40;99.90
46309;DHT22;32037;50.820;6.494;2024-03-17T15:38:54;11.40;99.90
46309;DHT22;32037;50.820;6.494;2024-03-17T15:41:21;11.40;99.90